Portada
METAR-TAF:

METAR-TAF

Aeroports :

Al Wajh, Aràbia Saudita

latitud: 26-12N, longitud: 036-28E, altitud: 20 m

Observació

L'informe es va fer fa 59 minuts, a les 15:00 UTC
Vent 15 kt del Oest/Nord-Oest
Temperatura 25°C
Humitat 69%
Pressió 1010 hPa
Visibilitat 10 km o més
sense núvols per sota de 1500 mi sense presència de cumulonimbus.

METAR: OEWJ 031500Z 30015KT CAVOK 25/19 Q1010 NOSIG

Hora: 18:59 (15:59 UTC)

Pronòstic

L'informe es va fer fa 4 hores i 59 minuts, a les 11:00 UTC
Pronòstic vàlid del 03 a les 12 UTC al 04 a les 18 UTC
Vent 14 kt del Nord/Nord-Oest
Visibilitat 10 km o més
sense núvols per sota de 1500 mi sense presència de cumulonimbus.
Evolucionant progressivament
l' 03 a les 18 UTC al 03 a les 20 UTC
Vent 3 kt amb direcció variable
Evolucionant progressivament
l' 04 a les 10 UTC al 04 a les 12 UTC
Vent 12 kt del Oest

TAF: OEWJ 031100Z 0312/0418 34014KT CAVOK BECMG 0318/0320 VRB03KT BECMG 0410/0412 27012KT

Observacions i pronòstics meteorològics de més de 4000 aeroports (METAR i TAF).

Les estacions disponibles són els punts grocs i vermells al mapa.

Posi el ratolí al punt desitjat per veure el nom de l'estació.

Feu clic per veure les observacions i els pronòstics meteorològics.

Per canviar el mapa: feu clic els botons verds amb una creu de color negre per apropar; al botó verd amb un guió per allunyar la imatge; o en les fletxes verdes per a mapes adjacents.


METAR-TAF: